Cockenzie, United Kingdom
Current Conditions -  °F | °C
As of 9:20 AM on Wednesday 22 Oct 2014 (Local Time) from EGPH Reporting Station
Broken Clouds Broken Clouds  
Wind Chill: 10°   Ceiling: 3300
Heat Index: 10°   Visibility: 6mi
Dew Point:   Wind: 12mph
Humidity: 82%   Direction: 230°SW
Pressure: 30.06"   Gusts: NA
Location:  55.97°N, 2.97°W
Report Text: EGPH 220820Z 23010KT 9000 SCT026 BKN033 10/07 Q1018
Loading
Personal Weather Stations






























Interactive Weather Map
Tropical Storm Tracking
New forecast layout! Learn more

10-Day Weather Forecast

Advertisements
Track Severe Weather on mobile